EGFF/CWL METAR and TAF weather

Enter ICAO airport designator
Station Type Date Time Source
EGFF METAR 2020/03/31 22:20 UTC NOAA

EGFF 312220Z AUTO 04008KT 9999 NCD 05/M00 Q1029


Station Type Date Time Source
EGFF Decoded METAR 2020/03/31 22:20 UTC NOAA

Cardiff-Wales Airport, United Kingdom (EGFF) 51-24N 003-21W 0M
Mar 31, 2020 - 06:20 PM EDT / 2020.03.31 2220 UTC
Wind: from the NE (040 degrees) at 9 MPH (8 KT):0
Visibility: greater than 7 mile(s):0
Temperature: 41 F (5 C)
Dew Point: 32 F (0 C)
Relative Humidity: 70%
Pressure (altimeter): 30.39 in. Hg (1029 hPa)
ob: EGFF 312220Z AUTO 04008KT 9999 NCD 05/M00 Q1029
cycle: 22

Station Type Date Time Source
EGFF TAF 2020/03/31 18:09 UTC NOAA

TAF EGFF 311657Z 3118/0118 05010KT 9999 SCT040
BECMG 0105/0108 VRB05KT

Example: see airport list